Hovedside
METAR-TAF:

METAR-TAF

Lufthavner :

Kalmar, Sverige

Kalmar lufthavn

breddegrad: 56-44N, lengdegrad: 016-18E, høyde over havet: 16 m

Gjeldene værobservasjon

Denne rapporten ble laget for 38 minutter siden, klokken 18:20 UTC
Vind 2 kt fra Øst-nordøst
Temperatur 13°C
Luftfuktighet 100%
Trykk 1021 hPa
Sikt: 2000 m
Spredte skyer i en høyde av 200 ft
Brutte skyer i en høyde av 600 ft
dis

METAR: ESMQ 221820Z 07002KT 2000 BR SCT002 BKN006 13/13 Q1021 REDZ

Tid: 20:58 (18:58 UTC)

Varsel

Denne rapporten ble laget for 13 minutter siden, klokken 18:45 UTC
Varsel gyldig fra 22. klokken 18 UTC til 22. klokken 21 UTC
Vind 3 kt fra Øst-nordøst
Sikt 10 km eller mer
Brutte skyer i en høyde av 600 ft
Midlertidig
fra 22. klokken 18 UTC til 22. klokken 21 UTC
Sikt: 2000 m
Brutte skyer i en høyde av 300 ft
dis

TAF: ESMQ 221845Z 2218/2221 07003KT 9999 BKN006 TEMPO 2218/2221 2000 BR BKN003

Værobservasjoner og værvarsel for over 4000 flyplasser (METAR- og TAF-rapporter).

Tilgjengelige stasjoner er representert av de røde og gule prikkene på kartet.

Hold musepekeren over prikken for å se navnet på stasjonen.

Klikk så for å se værobservasjoner og -varsler.

For å forandre kartet kan du klikke på den grønne knappen med svart kryss for å zoome inn, på den grønne knappen med strek for å zoome ut, eller på de grønne pilene for å se tilstøtende kart.


METAR-TAF: